Onweer radar Meer informatie blitzortung!


Regen radar Meer informatie rain snow radar



METAR rapporten vliegvelden

   
EHRD - Rotterdam The Hague Airport - Rotterdam, Netherlands
Afstand tot: NW 20 km
Gewijzigd: 07-04-2020 05:55
Mist, Helder  
Mist, Helder  
   Wind: Zuiden 1.9 km/h
Wind: Zuiden 1.9 km/h
Temperatuur: 5°C
Dauwpunt: 5°C
Vochtigheid: 100%
Barometer: 1029 hPa
Bewolking: Helder
Zicht: 1 km
Bewolking: Helder
EHRD 070355Z AUTO 17001KT 0450 R24/0650N FG NCD 05/05 Q1029 NOSIG
EHAM - Amsterdam Airport Schiphol - Haarlemmermeer, Netherlands
Afstand tot: NNO 55 km
Gewijzigd: 07-04-2020 05:55
Patches of, Mist, Gedeeltelijk bewolkt  
Patches of, Mist, Gedeeltelijk bewolkt  
   Wind: NNO 1.9 km/h
Wind: NNO 1.9 km/h
Temperatuur: 5°C
Dauwpunt: 5°C
Vochtigheid: 100%
Barometer: 1029 hPa
Bewolking: Gedeeltelijk bewolkt
Zicht: 6 km
Bewolking: Gedeeltelijk bewolkt
EHAM 070355Z 03001KT 6000 R18C/0750U R27/1500U R18R/0275N R06/P2000N BCFG NSC 05/05 Q1029 BECMG 3000 BR
EHKD - Vliegveld de Kooy - Den Helder, Netherlands
Afstand tot: N 123 km
Gewijzigd: 07-04-2020 05:55
Mist, Grotendeels bewolkt  
Mist, Grotendeels bewolkt  
   Wind: Westen 3.7 km/h
Wind: Westen 3.7 km/h
Temperatuur: 3°C
Dauwpunt: 3°C
Vochtigheid: 100%
Barometer: 1029 hPa
Bewolking: Grotendeels bewolkt
Zicht: 0 km
Bewolking: Grotendeels bewolkt
EHKD 070355Z AUTO 27002KT 0300 FG BKN000 03/03 Q1029 RED
EBAW - Vliegbasis Leeuwarden - Leeuwarden, Netherlands
Afstand tot: NNO 173 km
Gewijzigd: 07-04-2020 05:50
Patches of, Mist, Helder  
Patches of, Mist, Helder  
   Wind: varieert 1.9 km/h
Wind: varieert 1.9 km/h
Temperatuur: 5°C
Dauwpunt: 4°C
Vochtigheid: 93%
Barometer: 1029 hPa
Bewolking: Helder
Zicht: 2 km
Bewolking: Helder
EBAW 070350Z AUTO VRB01KT 1700 BCFG NCD 05/04 Q1029
EHEH - Vliegbasis Eindhoven - Eindhoven, Netherlands
Afstand tot: ZO 65 km
Gewijzigd: 07-04-2020 06:18
Nevel, Helder  
Nevel, Helder  
   Wind: NNW 1.9 km/h
Wind: NNW 1.9 km/h
Temperatuur: 5°C
Dauwpunt: 5°C
Vochtigheid: 100%
Barometer: 1029 hPa
Bewolking: Helder
Zicht: 1 km
Bewolking: Helder
EHEH 070418Z AUTO 34001KT 1100 BR NCD 05/05 Q1029 AMB
EHBK - Maastricht Aachen Airport - Meerssen, Netherlands
Afstand tot: ZO 128 km
Gewijzigd: 07-04-2020 05:55
Helder  
Helder  
   Wind: WZW 1.9 km/h
Wind: WZW 1.9 km/h
Temperatuur: 9°C
Dauwpunt: 8°C
Vochtigheid: 94%
Barometer: 1029 hPa
Bewolking: Helder
Zicht: meer dan 10 km
Bewolking: Helder
EHBK 070355Z AUTO 25001KT 9999 NCD 09/08 Q1029

Script ontwikkeld door  Saratoga-weather.org Aangepast voor de template door  Weerstation Leuven

U vindt ons ook hier:

UK Metoffice

Weather Underground

AWEKAS